Antonello — IKVS — position and weather

sailwx.info

Track history (hours):
 
Tides and Currents Weather Stations Pressure Air Temp Water Temp Dewpoint Dewpoint Depression Visibility Wind Speed Wind Dir Waves Ship Positions

Antonello

Last reported at 2015-May-30 15:33 UTC. Time now 2015-May-30 16:39 UTC.
Position N 36°37' E 014°56'.

Length 70 m; draft 4.2 m.

Type: Ship. MMSI: 247422000.

Date/timePositionNaut miles runAvg speedWind from/ knotsBaromVisibWave heightAir tempDewpointWater temp
2015-May-30 15:33N 36°37' E 014°56'10 9.9
2015-May-30 14:33N 36°39' E 014°44'1010.2
2015-May-30 13:33N 36°43' E 014°32'1110.8
2015-May-30 12:33N 36°48' E 014°20'1010.4
2015-May-30 11:33N 36°53' E 014°09'1010.1
2015-May-30 10:33N 36°58' E 013°58'1010.1
2015-May-30 09:33N 37°02' E 013°46'1110.7
2015-May-30 08:31N 37°07' E 013°34'3210.2
2015-May-30 05:25N 37°22' E 012°58'11 9.6
2015-May-30 04:14N 37°27' E 012°46'16 9.1
2015-May-30 02:25N 37°35' E 012°28'8 9.3
2015-May-30 01:33N 37°41' E 012°21'10 9.6
2015-May-30 00:33N 37°49' E 012°14'10 9.7
2015-May-29 23:33N 37°57' E 012°06'2 0.4
2015-May-29 18:25N 37°58' E 012°05'0 0.0
2015-May-29 15:26N 37°58' E 012°05'0 0.0
2015-May-29 14:20N 37°58' E 012°05'0 0.0
2015-May-29 13:25N 37°58' E 012°05'0 0.0
2015-May-29 12:31N 37°58' E 012°05'0 0.0
2015-May-29 11:33N 37°58' E 012°05'3 2.7
2015-May-29 10:32N 37°56' E 012°07'1 1.5
2015-May-29 09:33N 37°58' E 012°07'1 1.3
2015-May-29 08:34N 37°59' E 012°08'10 9.8
2015-May-29 07:33N 38°04' E 012°18'1010.3
2015-May-29 06:34N 38°09' E 012°29'1010.1
2015-May-29 05:32N 38°14' E 012°41'9 9.3
2015-May-29 04:32N 38°17' E 012°52'18 9.1
2015-May-29 02:34N 38°20' E 013°15'9 9.0
2015-May-29 01:33N 38°21' E 013°26'9 8.8
2015-May-29 00:32N 38°21' E 013°38'65 9.0
2015-May-28 17:18N 38°20' E 015°01'7 9.0
2015-May-28 16:33N 38°22' E 015°09'9 8.8
2015-May-28 15:29N 38°24' E 015°21'8 8.5
2015-May-28 14:33N 38°25' E 015°31'9 8.6
2015-May-28 13:33N 38°26' E 015°42'9 8.6
2015-May-28 12:33N 38°27' E 015°53'1 0.2
2015-May-28 05:30N 38°27' E 015°54'6 6.6
2015-May-28 04:33N 38°30' E 015°48'1 0.7
2015-May-28 03:33N 38°31' E 015°48'5 4.8
2015-May-28 02:32N 38°30' E 015°42'6 6.4
2015-May-28 01:33N 38°31' E 015°34'7 6.7
2015-May-28 00:33N 38°33' E 015°26'7 6.7
2015-May-27 23:33N 38°35' E 015°17'7 6.7
2015-May-27 22:32N 38°37' E 015°09'4 3.1
2015-May-27 21:21N 38°38' E 015°05'0 0.0
2015-May-27 20:11N 38°38' E 015°05'0 0.0
2015-May-27 19:29N 38°38' E 015°05'0 0.0
2015-May-27 18:22N 38°38' E 015°05'0 0.0
2015-May-27 17:22N 38°38' E 015°05'0 0.0
2015-May-27 08:19N 38°38' E 015°05'0 0.1
2015-May-27 04:33N 38°38' E 015°05'0 0.0
2015-May-27 00:33N 38°38' E 015°05'0 0.0
2015-May-26 23:32N 38°38' E 015°05'0 0.0
2015-May-26 22:31N 38°38' E 015°05'0 0.0
2015-May-26 21:31N 38°38' E 015°05'0 0.0
2015-May-26 20:30N 38°38' E 015°05'0 0.0
2015-May-26 19:33N 38°38' E 015°05'9 8.6
2015-May-26 18:30N 38°46' E 015°11'2 0.6
2015-May-26 15:33N 38°46' E 015°13'8 8.4
2015-May-26 14:33N 38°42' E 015°22'9 8.8
2015-May-26 13:33N 38°38' E 015°32'9 8.9
2015-May-26 12:33N 38°33' E 015°42'9 9.1
2015-May-26 11:32N 38°28' E 015°51'2 0.2
2015-May-26 04:33N 38°27' E 015°53'7 7.1
2015-May-26 03:33N 38°29' E 015°44'5 4.6
2015-May-26 02:33N 38°29' E 015°39'6 6.3
2015-May-26 01:32N 38°30' E 015°30'6 6.3
2015-May-26 00:33N 38°31' E 015°23'6 6.3
2015-May-25 23:33N 38°33' E 015°15'6 6.4
2015-May-25 22:32N 38°34' E 015°07'10 6.6
2015-May-25 21:03N 38°36' E 014°55'3 0.2
2015-May-25 05:18N 38°36' E 014°51'5 6.7
2015-May-25 04:30N 38°33' E 014°56'4 3.2
2015-May-25 03:06N 38°29' E 014°59'0 0.0
2015-May-25 02:20N 38°29' E 014°59'0 0.0
2015-May-25 01:11N 38°29' E 014°59'0 0.0
2015-May-25 00:19N 38°29' E 014°59'0 0.0
2015-May-24 23:25N 38°29' E 014°59'0 0.0
2015-May-24 22:21N 38°29' E 014°59'0 0.0
2015-May-24 21:14N 38°29' E 014°59'0 0.0
2015-May-24 20:26N 38°29' E 014°59'0 0.0
2015-May-24 19:25N 38°29' E 014°59'0 0.0
2015-May-24 18:19N 38°29' E 014°59'0 0.0
2015-May-24 17:24N 38°29' E 014°59'0 0.0
2015-May-24 16:27N 38°29' E 014°59'0 0.0
2015-May-24 13:31N 38°29' E 014°59'0 0.0
2015-May-24 12:27N 38°29' E 014°59'0 0.0
2015-May-24 11:27N 38°29' E 014°59'0 0.1
2015-May-24 10:20N 38°28' E 014°58'0 0.0
2015-May-24 08:30N 38°28' E 014°58'5 5.6
2015-May-24 07:33N 38°33' E 015°02'9 8.8
2015-May-24 06:31N 38°41' E 015°06'6 6.6
2015-May-24 05:33N 38°47' E 015°11'4 3.8
2015-May-24 04:29N 38°49' E 015°15'0 0.0
2015-May-24 03:23N 38°49' E 015°15'0 0.0
2015-May-24 02:28N 38°49' E 015°15'0 0.0
2015-May-24 01:22N 38°49' E 015°15'0 0.0
2015-May-24 00:09N 38°49' E 015°15'0 0.0
2015-May-23 23:32N 38°49' E 015°15'0 0.0
2015-May-23 22:29N 38°49' E 015°15'0 0.0
2015-May-23 21:28N 38°49' E 015°15'0 0.0
2015-May-23 20:31N 38°49' E 015°15'0 0.0
2015-May-23 19:06N 38°49' E 015°15'2 3.0
2015-May-23 18:33N 38°48' E 015°16'9 8.8
2015-May-23 17:33N 38°42' E 015°25'9 8.8
2015-May-23 16:33N 38°37' E 015°34'9 8.7
2015-May-23 15:33N 38°32' E 015°44'9 8.6
2015-May-23 14:33N 38°27' E 015°52'1 0.2
2015-May-23 07:33N 38°27' E 015°51'10 9.8
2015-May-23 06:33N 38°28' E 015°39'1010.0
2015-May-23 05:33N 38°28' E 015°26'1010.0
2015-May-23 04:33N 38°28' E 015°13'1010.0
2015-May-23 03:33N 38°28' E 015°00'2 0.1
2015-May-22 05:15N 38°29' E 014°58'0 0.5
2015-May-22 04:13N 38°28' E 014°58'0 0.0
2015-May-22 03:19N 38°28' E 014°58'0 0.0
2015-May-22 02:18N 38°28' E 014°58'0 0.0
2015-May-22 01:30N 38°28' E 014°58'0 0.0
2015-May-22 00:23N 38°28' E 014°58'0 0.0
2015-May-21 23:28N 38°28' E 014°58'0 0.0
2015-May-21 22:28N 38°28' E 014°58'0 0.0
2015-May-21 21:30N 38°28' E 014°58'0 0.0
2015-May-21 20:30N 38°28' E 014°58'0 0.0
2015-May-21 19:32N 38°28' E 014°58'0 0.0
2015-May-21 18:33N 38°28' E 014°58'0 0.0
2015-May-21 17:33N 38°28' E 014°58'13 5.8
2015-May-21 15:14N 38°31' E 014°41'7 1.5
2015-May-21 10:18N 38°27' E 014°49'7 9.2
2015-May-21 09:32N 38°26' E 014°58'2 0.7
2015-May-21 07:17N 38°28' E 014°58'0 0.0
2015-May-21 06:28N 38°28' E 014°58'0 0.0
2015-May-21 05:31N 38°28' E 014°58'0 0.0
2015-May-21 04:30N 38°28' E 014°58'0 0.0
2015-May-21 03:26N 38°28' E 014°58'0 0.0
2015-May-21 02:26N 38°28' E 014°58'0 0.0
2015-May-20 22:32N 38°28' E 014°58'0 0.0
2015-May-20 21:29N 38°28' E 014°58'0 0.0
2015-May-20 20:31N 38°28' E 014°58'0 0.0
2015-May-20 19:31N 38°28' E 014°58'0 0.0
2015-May-20 18:33N 38°28' E 014°58'0 0.0
2015-May-20 16:29N 38°28' E 014°58'  
Track history (hours):
 
Tides and Currents Weather Stations Pressure Air Temp Water Temp Dewpoint Dewpoint Depression Visibility Wind Speed Wind Dir Waves Ship Positions

Antonello

Last reported at 2015-May-30 15:33 UTC. Time now 2015-May-30 16:39 UTC.
Position N 36°37' E 014°56'.

Length 70 m; draft 4.2 m.

Type: Ship. MMSI: 247422000.

Date/timePositionNaut miles runAvg speedWind from/ knotsBaromVisibWave heightAir tempDewpointWater temp
2015-May-30 15:33N 36°37' E 014°56'10 9.9
2015-May-30 14:33N 36°39' E 014°44'1010.2
2015-May-30 13:33N 36°43' E 014°32'1110.8
2015-May-30 12:33N 36°48' E 014°20'1010.4
2015-May-30 11:33N 36°53' E 014°09'1010.1
2015-May-30 10:33N 36°58' E 013°58'1010.1
2015-May-30 09:33N 37°02' E 013°46'1110.7
2015-May-30 08:31N 37°07' E 013°34'3210.2
2015-May-30 05:25N 37°22' E 012°58'11 9.6
2015-May-30 04:14N 37°27' E 012°46'16 9.1
2015-May-30 02:25N 37°35' E 012°28'8 9.3
2015-May-30 01:33N 37°41' E 012°21'10 9.6
2015-May-30 00:33N 37°49' E 012°14'10 9.7
2015-May-29 23:33N 37°57' E 012°06'2 0.4
2015-May-29 18:25N 37°58' E 012°05'0 0.0
2015-May-29 15:26N 37°58' E 012°05'0 0.0
2015-May-29 14:20N 37°58' E 012°05'0 0.0
2015-May-29 13:25N 37°58' E 012°05'0 0.0
2015-May-29 12:31N 37°58' E 012°05'0 0.0
2015-May-29 11:33N 37°58' E 012°05'3 2.7
2015-May-29 10:32N 37°56' E 012°07'1 1.5
2015-May-29 09:33N 37°58' E 012°07'1 1.3
2015-May-29 08:34N 37°59' E 012°08'10 9.8
2015-May-29 07:33N 38°04' E 012°18'1010.3
2015-May-29 06:34N 38°09' E 012°29'1010.1
2015-May-29 05:32N 38°14' E 012°41'9 9.3
2015-May-29 04:32N 38°17' E 012°52'18 9.1
2015-May-29 02:34N 38°20' E 013°15'9 9.0
2015-May-29 01:33N 38°21' E 013°26'9 8.8
2015-May-29 00:32N 38°21' E 013°38'65 9.0
2015-May-28 17:18N 38°20' E 015°01'7 9.0
2015-May-28 16:33N 38°22' E 015°09'9 8.8
2015-May-28 15:29N 38°24' E 015°21'8 8.5
2015-May-28 14:33N 38°25' E 015°31'9 8.6
2015-May-28 13:33N 38°26' E 015°42'9 8.6
2015-May-28 12:33N 38°27' E 015°53'1 0.2
2015-May-28 05:30N 38°27' E 015°54'6 6.6
2015-May-28 04:33N 38°30' E 015°48'1 0.7
2015-May-28 03:33N 38°31' E 015°48'5 4.8
2015-May-28 02:32N 38°30' E 015°42'6 6.4
2015-May-28 01:33N 38°31' E 015°34'7 6.7
2015-May-28 00:33N 38°33' E 015°26'7 6.7
2015-May-27 23:33N 38°35' E 015°17'7 6.7
2015-May-27 22:32N 38°37' E 015°09'4 3.1
2015-May-27 21:21N 38°38' E 015°05'0 0.0
2015-May-27 20:11N 38°38' E 015°05'0 0.0
2015-May-27 19:29N 38°38' E 015°05'0 0.0
2015-May-27 18:22N 38°38' E 015°05'0 0.0
2015-May-27 17:22N 38°38' E 015°05'0 0.0
2015-May-27 08:19N 38°38' E 015°05'0 0.1
2015-May-27 04:33N 38°38' E 015°05'0 0.0
2015-May-27 00:33N 38°38' E 015°05'0 0.0
2015-May-26 23:32N 38°38' E 015°05'0 0.0
2015-May-26 22:31N 38°38' E 015°05'0 0.0
2015-May-26 21:31N 38°38' E 015°05'0 0.0
2015-May-26 20:30N 38°38' E 015°05'0 0.0
2015-May-26 19:33N 38°38' E 015°05'9 8.6
2015-May-26 18:30N 38°46' E 015°11'2 0.6
2015-May-26 15:33N 38°46' E 015°13'8 8.4
2015-May-26 14:33N 38°42' E 015°22'9 8.8
2015-May-26 13:33N 38°38' E 015°32'9 8.9
2015-May-26 12:33N 38°33' E 015°42'9 9.1
2015-May-26 11:32N 38°28' E 015°51'2 0.2
2015-May-26 04:33N 38°27' E 015°53'7 7.1
2015-May-26 03:33N 38°29' E 015°44'5 4.6
2015-May-26 02:33N 38°29' E 015°39'6 6.3
2015-May-26 01:32N 38°30' E 015°30'6 6.3
2015-May-26 00:33N 38°31' E 015°23'6 6.3
2015-May-25 23:33N 38°33' E 015°15'6 6.4
2015-May-25 22:32N 38°34' E 015°07'10 6.6
2015-May-25 21:03N 38°36' E 014°55'3 0.2
2015-May-25 05:18N 38°36' E 014°51'5 6.7
2015-May-25 04:30N 38°33' E 014°56'4 3.2
2015-May-25 03:06N 38°29' E 014°59'0 0.0
2015-May-25 02:20N 38°29' E 014°59'0 0.0
2015-May-25 01:11N 38°29' E 014°59'0 0.0
2015-May-25 00:19N 38°29' E 014°59'0 0.0
2015-May-24 23:25N 38°29' E 014°59'0 0.0
2015-May-24 22:21N 38°29' E 014°59'0 0.0
2015-May-24 21:14N 38°29' E 014°59'0 0.0
2015-May-24 20:26N 38°29' E 014°59'0 0.0
2015-May-24 19:25N 38°29' E 014°59'0 0.0
2015-May-24 18:19N 38°29' E 014°59'0 0.0
2015-May-24 17:24N 38°29' E 014°59'0 0.0
2015-May-24 16:27N 38°29' E 014°59'0 0.0
2015-May-24 13:31N 38°29' E 014°59'0 0.0
2015-May-24 12:27N 38°29' E 014°59'0 0.0
2015-May-24 11:27N 38°29' E 014°59'0 0.1
2015-May-24 10:20N 38°28' E 014°58'0 0.0
2015-May-24 08:30N 38°28' E 014°58'5 5.6
2015-May-24 07:33N 38°33' E 015°02'9 8.8
2015-May-24 06:31N 38°41' E 015°06'6 6.6
2015-May-24 05:33N 38°47' E 015°11'4 3.8
2015-May-24 04:29N 38°49' E 015°15'0 0.0
2015-May-24 03:23N 38°49' E 015°15'0 0.0
2015-May-24 02:28N 38°49' E 015°15'0 0.0
2015-May-24 01:22N 38°49' E 015°15'0 0.0
2015-May-24 00:09N 38°49' E 015°15'0 0.0
2015-May-23 23:32N 38°49' E 015°15'0 0.0
2015-May-23 22:29N 38°49' E 015°15'0 0.0
2015-May-23 21:28N 38°49' E 015°15'0 0.0
2015-May-23 20:31N 38°49' E 015°15'0 0.0
2015-May-23 19:06N 38°49' E 015°15'2 3.0
2015-May-23 18:33N 38°48' E 015°16'9 8.8
2015-May-23 17:33N 38°42' E 015°25'9 8.8
2015-May-23 16:33N 38°37' E 015°34'9 8.7
2015-May-23 15:33N 38°32' E 015°44'9 8.6
2015-May-23 14:33N 38°27' E 015°52'1 0.2
2015-May-23 07:33N 38°27' E 015°51'10 9.8
2015-May-23 06:33N 38°28' E 015°39'1010.0
2015-May-23 05:33N 38°28' E 015°26'1010.0
2015-May-23 04:33N 38°28' E 015°13'1010.0
2015-May-23 03:33N 38°28' E 015°00'2 0.1
2015-May-22 05:15N 38°29' E 014°58'0 0.5
2015-May-22 04:13N 38°28' E 014°58'0 0.0
2015-May-22 03:19N 38°28' E 014°58'0 0.0
2015-May-22 02:18N 38°28' E 014°58'0 0.0
2015-May-22 01:30N 38°28' E 014°58'0 0.0
2015-May-22 00:23N 38°28' E 014°58'0 0.0
2015-May-21 23:28N 38°28' E 014°58'0 0.0
2015-May-21 22:28N 38°28' E 014°58'0 0.0
2015-May-21 21:30N 38°28' E 014°58'0 0.0
2015-May-21 20:30N 38°28' E 014°58'0 0.0
2015-May-21 19:32N 38°28' E 014°58'0 0.0
2015-May-21 18:33N 38°28' E 014°58'0 0.0
2015-May-21 17:33N 38°28' E 014°58'13 5.8
2015-May-21 15:14N 38°31' E 014°41'7 1.5
2015-May-21 10:18N 38°27' E 014°49'7 9.2
2015-May-21 09:32N 38°26' E 014°58'2 0.7
2015-May-21 07:17N 38°28' E 014°58'0 0.0
2015-May-21 06:28N 38°28' E 014°58'0 0.0
2015-May-21 05:31N 38°28' E 014°58'0 0.0
2015-May-21 04:30N 38°28' E 014°58'0 0.0
2015-May-21 03:26N 38°28' E 014°58'0 0.0
2015-May-21 02:26N 38°28' E 014°58'0 0.0
2015-May-20 22:32N 38°28' E 014°58'0 0.0
2015-May-20 21:29N 38°28' E 014°58'0 0.0
2015-May-20 20:31N 38°28' E 014°58'0 0.0
2015-May-20 19:31N 38°28' E 014°58'0 0.0
2015-May-20 18:33N 38°28' E 014°58'0 0.0
2015-May-20 16:29N 38°28' E 014°58'  

Dump ship's entire track history